sensor_id;sensor_type;location;lat;lon;timestamp;pressure;altitude;pressure_sealevel;temperature;humidity
12073;BME280;6098;49.004;8.372;2023-05-10T00:06:18;99807.18;;;14.65;100.00
12073;BME280;6098;49.004;8.372;2023-05-10T00:21:25;99808.73;;;14.62;100.00
12073;BME280;6098;49.004;8.372;2023-05-10T00:36:19;99812.34;;;14.54;100.00
12073;BME280;6098;49.004;8.372;2023-05-10T00:51:12;99826.41;;;14.57;100.00
12073;BME280;6098;49.004;8.372;2023-05-10T01:06:05;99817.84;;;14.59;100.00
12073;BME280;6098;49.004;8.372;2023-05-10T01:36:31;99810.89;;;14.50;100.00
12073;BME280;6098;49.004;8.372;2023-05-10T01:51:30;99818.33;;;14.52;100.00
12073;BME280;6098;49.004;8.372;2023-05-10T02:06:21;99822.20;;;14.60;100.00
12073;BME280;6098;49.004;8.372;2023-05-10T02:21:14;99830.10;;;14.62;100.00
12073;BME280;6098;49.004;8.372;2023-05-10T02:36:08;99833.09;;;14.63;100.00
12073;BME280;6098;49.004;8.372;2023-05-10T02:51:03;99833.70;;;14.61;100.00
12073;BME280;6098;49.004;8.372;2023-05-10T03:06:06;99829.69;;;14.54;100.00
12073;BME280;6098;49.004;8.372;2023-05-10T03:21:01;99842.84;;;14.43;100.00
12073;BME280;6098;49.004;8.372;2023-05-10T03:35:54;99873.05;;;14.37;100.00
12073;BME280;6098;49.004;8.372;2023-05-10T03:50:46;99880.52;;;14.38;100.00
12073;BME280;6098;49.004;8.372;2023-05-10T04:05:38;99887.66;;;14.30;100.00
12073;BME280;6098;49.004;8.372;2023-05-10T04:20:31;99889.38;;;14.39;100.00
12073;BME280;6098;49.004;8.372;2023-05-10T04:35:23;99898.70;;;14.53;100.00
12073;BME280;6098;49.004;8.372;2023-05-10T04:50:15;99903.42;;;14.62;100.00
12073;BME280;6098;49.004;8.372;2023-05-10T05:05:07;99908.38;;;14.68;100.00
12073;BME280;6098;49.004;8.372;2023-05-10T05:20:14;99909.99;;;14.78;100.00
12073;BME280;6098;49.004;8.372;2023-05-10T05:35:07;99920.48;;;14.94;100.00
12073;BME280;6098;49.004;8.372;2023-05-10T05:50:00;99928.36;;;14.97;100.00
12073;BME280;6098;49.004;8.372;2023-05-10T06:04:52;99943.13;;;15.02;98.16
12073;BME280;6098;49.004;8.372;2023-05-10T06:19:43;99978.27;;;15.09;96.27
12073;BME280;6098;49.004;8.372;2023-05-10T06:34:35;99978.13;;;15.11;96.21
12073;BME280;6098;49.004;8.372;2023-05-10T06:49:28;99983.50;;;15.24;93.07
12073;BME280;6098;49.004;8.372;2023-05-10T07:04:21;99991.92;;;15.53;90.59
12073;BME280;6098;49.004;8.372;2023-05-10T07:19:13;99994.82;;;15.69;89.50
12073;BME280;6098;49.004;8.372;2023-05-10T07:34:03;100005.40;;;15.78;85.29
12073;BME280;6098;49.004;8.372;2023-05-10T07:48:54;100013.67;;;15.94;84.70
12073;BME280;6098;49.004;8.372;2023-05-10T08:03:47;100021.00;;;16.04;83.44
12073;BME280;6098;49.004;8.372;2023-05-10T08:18:39;100026.89;;;16.35;81.30
12073;BME280;6098;49.004;8.372;2023-05-10T08:33:33;100025.00;;;16.69;78.25
12073;BME280;6098;49.004;8.372;2023-05-10T08:48:25;100039.66;;;16.64;77.20
12073;BME280;6098;49.004;8.372;2023-05-10T09:03:15;100055.36;;;16.88;73.59
12073;BME280;6098;49.004;8.372;2023-05-10T09:18:07;100068.52;;;16.78;74.14
12073;BME280;6098;49.004;8.372;2023-05-10T09:32:58;100075.97;;;16.93;71.80
12073;BME280;6098;49.004;8.372;2023-05-10T09:47:49;100098.45;;;16.72;66.57
12073;BME280;6098;49.004;8.372;2023-05-10T10:02:42;100096.33;;;17.52;69.12
12073;BME280;6098;49.004;8.372;2023-05-10T10:17:35;100102.76;;;17.56;65.58
12073;BME280;6098;49.004;8.372;2023-05-10T10:32:52;100108.80;;;17.58;64.98
12073;BME280;6098;49.004;8.372;2023-05-10T10:47:45;100110.87;;;17.97;65.00
12073;BME280;6098;49.004;8.372;2023-05-10T11:17:37;100113.38;;;18.11;60.36
12073;BME280;6098;49.004;8.372;2023-05-10T11:32:30;100112.89;;;18.18;60.37
12073;BME280;6098;49.004;8.372;2023-05-10T11:47:22;100123.50;;;18.20;56.78
12073;BME280;6098;49.004;8.372;2023-05-10T12:02:13;100126.23;;;18.12;53.91
12073;BME280;6098;49.004;8.372;2023-05-10T12:17:05;100125.66;;;18.27;53.13
12073;BME280;6098;49.004;8.372;2023-05-10T12:31:58;100133.68;;;18.51;51.34
12073;BME280;6098;49.004;8.372;2023-05-10T12:46:50;100128.10;;;18.94;50.44
12073;BME280;6098;49.004;8.372;2023-05-10T13:01:43;100128.11;;;19.00;47.04
12073;BME280;6098;49.004;8.372;2023-05-10T13:16:36;100117.09;;;19.32;47.12
12073;BME280;6098;49.004;8.372;2023-05-10T13:31:27;100102.39;;;19.42;47.82
12073;BME280;6098;49.004;8.372;2023-05-10T13:46:19;100105.95;;;19.31;48.61
12073;BME280;6098;49.004;8.372;2023-05-10T14:01:11;100096.19;;;19.07;48.93
12073;BME280;6098;49.004;8.372;2023-05-10T14:16:04;100096.17;;;18.73;48.67
12073;BME280;6098;49.004;8.372;2023-05-10T14:30:57;100077.34;;;19.91;48.92
12073;BME280;6098;49.004;8.372;2023-05-10T14:46:02;100070.17;;;21.37;44.34
12073;BME280;6098;49.004;8.372;2023-05-10T15:00:55;100066.61;;;21.36;46.49
12073;BME280;6098;49.004;8.372;2023-05-10T15:15:44;100078.17;;;20.29;47.08
12073;BME280;6098;49.004;8.372;2023-05-10T15:30:33;100080.92;;;20.44;47.28
12073;BME280;6098;49.004;8.372;2023-05-10T15:45:30;100087.11;;;20.82;44.95
12073;BME280;6098;49.004;8.372;2023-05-10T16:00:21;100093.05;;;20.44;45.83
12073;BME280;6098;49.004;8.372;2023-05-10T16:15:14;100091.23;;;19.91;45.99
12073;BME280;6098;49.004;8.372;2023-05-10T16:30:04;100101.75;;;19.39;49.57
12073;BME280;6098;49.004;8.372;2023-05-10T16:44:57;100105.91;;;19.14;52.57
12073;BME280;6098;49.004;8.372;2023-05-10T17:00:02;100109.10;;;18.68;49.78
12073;BME280;6098;49.004;8.372;2023-05-10T17:14:54;100119.65;;;18.29;50.74
12073;BME280;6098;49.004;8.372;2023-05-10T17:29:47;100119.19;;;18.05;54.70
12073;BME280;6098;49.004;8.372;2023-05-10T17:44:38;100133.52;;;17.87;56.06
12073;BME280;6098;49.004;8.372;2023-05-10T17:59:29;100131.03;;;17.72;58.51
12073;BME280;6098;49.004;8.372;2023-05-10T18:14:21;100137.36;;;17.46;60.36
12073;BME280;6098;49.004;8.372;2023-05-10T18:29:29;100138.50;;;17.24;62.32
12073;BME280;6098;49.004;8.372;2023-05-10T18:44:16;100155.62;;;17.03;63.40
12073;BME280;6098;49.004;8.372;2023-05-10T18:59:08;100160.62;;;16.69;62.65
12073;BME280;6098;49.004;8.372;2023-05-10T19:14:08;100172.94;;;16.45;63.30
12073;BME280;6098;49.004;8.372;2023-05-10T19:28:59;100195.05;;;16.34;64.50
12073;BME280;6098;49.004;8.372;2023-05-10T19:43:50;100204.33;;;16.21;65.20
12073;BME280;6098;49.004;8.372;2023-05-10T19:58:41;100216.80;;;15.94;66.57
12073;BME280;6098;49.004;8.372;2023-05-10T20:13:33;100220.34;;;15.81;68.28
12073;BME280;6098;49.004;8.372;2023-05-10T20:28:25;100221.62;;;15.67;69.23
12073;BME280;6098;49.004;8.372;2023-05-10T20:43:16;100223.23;;;15.49;71.31
12073;BME280;6098;49.004;8.372;2023-05-10T20:58:07;100221.83;;;15.35;72.02
12073;BME280;6098;49.004;8.372;2023-05-10T21:12:59;100223.92;;;15.16;73.10
12073;BME280;6098;49.004;8.372;2023-05-10T21:27:51;100218.96;;;15.02;74.17
12073;BME280;6098;49.004;8.372;2023-05-10T21:42:43;100217.20;;;14.87;75.70
12073;BME280;6098;49.004;8.372;2023-05-10T21:57:35;100214.09;;;14.72;76.10
12073;BME280;6098;49.004;8.372;2023-05-10T22:12:26;100205.20;;;14.56;76.56
12073;BME280;6098;49.004;8.372;2023-05-10T22:27:16;100201.92;;;14.44;77.49
12073;BME280;6098;49.004;8.372;2023-05-10T22:42:07;100215.20;;;14.37;78.02
12073;BME280;6098;49.004;8.372;2023-05-10T22:56:59;100204.16;;;14.28;78.23
12073;BME280;6098;49.004;8.372;2023-05-10T23:11:50;100203.88;;;14.17;79.78
12073;BME280;6098;49.004;8.372;2023-05-10T23:26:42;100216.61;;;14.12;80.87
12073;BME280;6098;49.004;8.372;2023-05-10T23:41:34;100225.19;;;14.02;81.43
12073;BME280;6098;49.004;8.372;2023-05-10T23:56:26;100225.91;;;13.89;81.84
